createdAt,value
2024-01-05T00:01:51.892Z,12.58
2024-01-05T00:04:20.165Z,12.57
2024-01-05T00:06:50.619Z,12.55
2024-01-05T00:09:18.993Z,12.55
2024-01-05T00:11:48.334Z,12.53
2024-01-05T00:14:16.317Z,12.52
2024-01-05T00:16:44.845Z,12.52
2024-01-05T00:19:13.432Z,12.48
2024-01-05T00:21:41.372Z,12.49
2024-01-05T00:24:10.692Z,12.49
2024-01-05T00:26:42.399Z,12.47
2024-01-05T00:29:10.495Z,12.47
2024-01-05T00:31:38.557Z,12.47
2024-01-05T00:34:06.709Z,12.46
2024-01-05T00:36:34.836Z,12.44
2024-01-05T00:39:03.227Z,12.46
2024-01-05T00:41:32.724Z,12.45
2024-01-05T00:44:00.628Z,12.46
2024-01-05T00:46:28.561Z,12.47
2024-01-05T00:48:57.026Z,12.48
2024-01-05T00:51:25.065Z,12.48
2024-01-05T00:53:53.007Z,12.49
2024-01-05T00:56:20.911Z,12.51
2024-01-05T00:58:50.120Z,12.51
2024-01-05T01:01:18.047Z,12.54
2024-01-05T01:03:46.097Z,12.56
2024-01-05T01:06:14.030Z,12.56
2024-01-05T01:08:41.919Z,12.59
2024-01-05T01:11:14.906Z,12.62
2024-01-05T01:13:42.915Z,12.64
2024-01-05T01:16:12.530Z,12.63
2024-01-05T01:18:40.907Z,12.61
2024-01-05T01:21:09.147Z,12.66
2024-01-05T01:23:37.080Z,12.69
2024-01-05T01:26:05.201Z,12.72
2024-01-05T01:28:33.075Z,12.74
2024-01-05T01:31:01.174Z,12.76
2024-01-05T01:33:30.579Z,12.76
2024-01-05T01:35:58.536Z,12.77
2024-01-05T01:38:26.386Z,12.75
2024-01-05T01:40:56.397Z,12.75
2024-01-05T01:43:25.678Z,12.75
2024-01-05T01:45:54.125Z,12.73
2024-01-05T01:48:22.201Z,12.74
2024-01-05T01:50:51.589Z,12.73
2024-01-05T01:53:20.773Z,12.70
2024-01-05T01:55:48.772Z,12.69
2024-01-05T01:58:16.807Z,12.68
2024-01-05T02:00:44.908Z,12.67
2024-01-05T02:03:12.930Z,12.65
2024-01-05T02:05:40.866Z,12.64
2024-01-05T02:08:10.168Z,12.62
2024-01-05T02:10:38.040Z,12.60
2024-01-05T02:13:06.290Z,12.58
2024-01-05T02:15:34.292Z,12.56
2024-01-05T02:18:02.346Z,12.55
2024-01-05T02:20:30.328Z,12.53
2024-01-05T02:22:58.651Z,12.52
2024-01-05T02:25:27.856Z,12.51
2024-01-05T02:27:55.972Z,12.48
2024-01-05T02:30:23.951Z,12.49
2024-01-05T02:32:51.929Z,12.46
2024-01-05T02:35:19.908Z,12.45
2024-01-05T02:37:47.785Z,12.45
2024-01-05T02:40:15.640Z,12.45
2024-01-05T02:42:44.877Z,12.45
2024-01-05T02:45:12.898Z,12.45
2024-01-05T02:47:40.803Z,12.45
2024-01-05T02:50:10.323Z,12.46
2024-01-05T02:52:38.190Z,12.47
2024-01-05T02:55:07.209Z,12.48
2024-01-05T02:57:35.136Z,12.48
2024-01-05T03:00:05.348Z,12.49
2024-01-05T03:02:33.506Z,12.52
2024-01-05T03:05:01.440Z,12.54
2024-01-05T03:07:29.357Z,12.56
2024-01-05T03:09:57.485Z,12.58
2024-01-05T03:12:25.529Z,12.61
2024-01-05T03:14:53.572Z,12.63
2024-01-05T03:17:22.841Z,12.63
2024-01-05T03:19:51.027Z,12.64
2024-01-05T03:22:18.944Z,12.63
2024-01-05T03:24:46.843Z,12.64
2024-01-05T03:27:16.043Z,12.67
2024-01-05T03:29:44.124Z,12.66
2024-01-05T03:32:12.124Z,12.71
2024-01-05T03:34:41.444Z,12.74
2024-01-05T03:37:09.354Z,12.76
2024-01-05T03:39:37.410Z,12.74
2024-01-05T03:42:06.056Z,12.77
2024-01-05T03:44:33.940Z,12.76
2024-01-05T03:47:01.810Z,12.76
2024-01-05T03:49:29.960Z,12.76
2024-01-05T03:51:59.259Z,12.74
2024-01-05T03:54:27.751Z,12.73
2024-01-05T03:56:55.789Z,12.72
2024-01-05T03:59:23.695Z,12.71
2024-01-05T04:01:51.681Z,12.71
2024-01-05T04:04:19.753Z,12.70
2024-01-05T04:06:48.066Z,12.67
2024-01-05T04:09:17.558Z,12.67
2024-01-05T04:11:45.491Z,12.65
2024-01-05T04:14:13.399Z,12.64
2024-01-05T04:16:41.569Z,12.61
2024-01-05T04:19:10.271Z,12.60
2024-01-05T04:21:38.294Z,12.58
2024-01-05T04:24:06.524Z,12.56
2024-01-05T04:26:35.965Z,12.49
2024-01-05T04:29:03.893Z,12.51
2024-01-05T04:31:31.784Z,12.49
2024-01-05T04:33:59.861Z,12.49
2024-01-05T04:36:27.877Z,12.47
2024-01-05T04:38:55.815Z,12.45
2024-01-05T04:41:23.730Z,12.43
2024-01-05T04:43:52.997Z,12.43
2024-01-05T04:46:20.907Z,12.43
2024-01-05T04:48:48.867Z,12.43
2024-01-05T04:51:16.828Z,12.41
2024-01-05T04:53:44.773Z,12.41
2024-01-05T04:56:12.693Z,12.41
2024-01-05T04:58:40.553Z,12.41
2024-01-05T05:01:09.828Z,12.33
2024-01-05T05:03:37.881Z,12.44
2024-01-05T05:06:06.036Z,12.44
2024-01-05T05:08:33.951Z,12.46
2024-01-05T05:11:01.842Z,12.47
2024-01-05T05:13:29.731Z,12.40
2024-01-05T05:15:57.692Z,12.49
2024-01-05T05:18:27.193Z,12.48
2024-01-05T05:20:55.311Z,12.54
2024-01-05T05:23:23.286Z,12.56
2024-01-05T05:25:51.142Z,12.57
2024-01-05T05:28:19.056Z,12.57
2024-01-05T05:30:47.047Z,12.58
2024-01-05T05:33:15.050Z,12.57
2024-01-05T05:35:44.328Z,12.62
2024-01-05T05:38:12.273Z,12.67
2024-01-05T05:40:40.142Z,12.67
2024-01-05T05:43:08.173Z,12.69
2024-01-05T05:45:36.295Z,12.72
2024-01-05T05:48:05.492Z,12.69
2024-01-05T05:50:33.829Z,12.70
2024-01-05T05:53:03.086Z,12.74
2024-01-05T05:55:31.574Z,12.74
2024-01-05T05:58:00.866Z,12.73
2024-01-05T06:00:29.809Z,12.70
2024-01-05T06:02:57.829Z,12.69
2024-01-05T06:05:25.937Z,12.68
2024-01-05T06:07:53.862Z,12.67
2024-01-05T06:10:23.440Z,12.62
2024-01-05T06:12:51.423Z,12.63
2024-01-05T06:15:19.367Z,12.61
2024-01-05T06:17:47.406Z,12.59
2024-01-05T06:20:15.522Z,12.54
2024-01-05T06:22:43.478Z,12.56
2024-01-05T06:25:12.836Z,12.54
2024-01-05T06:27:42.083Z,12.53
2024-01-05T06:30:11.509Z,12.51
2024-01-05T06:32:40.076Z,12.50
2024-01-05T06:35:08.924Z,12.48
2024-01-05T06:37:36.814Z,12.46
2024-01-05T06:40:05.213Z,12.45
2024-01-05T06:42:33.163Z,12.43
2024-01-05T06:45:02.529Z,12.40
2024-01-05T06:47:30.534Z,12.35
2024-01-05T06:49:58.690Z,12.40
2024-01-05T06:52:26.695Z,12.39
2024-01-05T06:54:54.798Z,12.41
2024-01-05T06:57:22.870Z,12.40
2024-01-05T06:59:50.906Z,12.41
2024-01-05T07:02:20.144Z,12.41
2024-01-05T07:04:48.034Z,12.43
2024-01-05T07:07:17.071Z,12.47
2024-01-05T07:09:45.272Z,12.46
2024-01-05T07:12:13.227Z,12.49
2024-01-05T07:14:41.178Z,12.49
2024-01-05T07:17:09.104Z,12.52
2024-01-05T07:19:38.463Z,12.54
2024-01-05T07:22:06.419Z,12.59
2024-01-05T07:24:34.739Z,12.58
2024-01-05T07:27:02.695Z,12.60
2024-01-05T07:29:30.624Z,12.62
2024-01-05T07:31:58.558Z,12.62
2024-01-05T07:34:26.600Z,12.63
2024-01-05T07:36:55.918Z,12.66
2024-01-05T07:39:23.894Z,12.70
2024-01-05T07:41:51.862Z,12.65
2024-01-05T07:44:19.824Z,12.72
2024-01-05T07:46:47.741Z,12.72
2024-01-05T07:49:15.771Z,12.74
2024-01-05T07:51:43.980Z,12.75
2024-01-05T07:54:13.516Z,12.73
2024-01-05T07:56:41.453Z,12.74
2024-01-05T07:59:09.599Z,12.72
2024-01-05T08:01:37.576Z,12.72
2024-01-05T08:04:06.116Z,12.70
2024-01-05T08:06:34.136Z,12.69
2024-01-05T08:09:02.182Z,12.69
2024-01-05T08:11:31.490Z,12.63
2024-01-05T08:13:59.442Z,12.65
2024-01-05T08:16:27.656Z,12.65
2024-01-05T08:18:55.649Z,12.64
2024-01-05T08:21:23.666Z,12.63
2024-01-05T08:23:51.605Z,12.60
2024-01-05T08:26:19.842Z,12.60
2024-01-05T08:28:49.314Z,12.57
2024-01-05T08:31:17.464Z,12.53
2024-01-05T08:33:45.814Z,12.48
2024-01-05T08:36:13.931Z,12.50
2024-01-05T08:38:41.950Z,12.52
2024-01-05T08:41:09.900Z,12.51
2024-01-05T08:43:39.856Z,12.50
2024-01-05T08:46:10.860Z,12.49
2024-01-05T08:48:40.349Z,12.48
2024-01-05T08:51:08.308Z,12.47
2024-01-05T08:53:36.225Z,12.40
2024-01-05T08:56:04.282Z,12.46
2024-01-05T08:58:32.245Z,12.41
2024-01-05T09:01:00.295Z,12.46
2024-01-05T09:03:30.495Z,12.46
2024-01-05T09:05:58.492Z,12.46
2024-01-05T09:08:26.611Z,12.48
2024-01-05T09:10:55.633Z,12.46
2024-01-05T09:13:24.011Z,12.49
2024-01-05T09:15:52.010Z,12.53
2024-01-05T09:18:20.062Z,12.47
2024-01-05T09:20:49.386Z,12.56
2024-01-05T09:23:17.447Z,12.58
2024-01-05T09:25:46.670Z,12.61
2024-01-05T09:28:14.807Z,12.63
2024-01-05T09:30:42.998Z,12.62
2024-01-05T09:33:11.205Z,12.65
2024-01-05T09:35:39.214Z,12.65
2024-01-05T09:38:08.651Z,12.66
2024-01-05T09:40:36.636Z,12.68
2024-01-05T09:43:04.806Z,12.67
2024-01-05T09:45:32.888Z,12.73
2024-01-05T09:48:01.342Z,12.76
2024-01-05T09:50:30.552Z,12.78
2024-01-05T09:52:58.710Z,12.78
2024-01-05T09:55:28.165Z,12.59
2024-01-05T09:57:56.073Z,12.80
2024-01-05T10:00:24.422Z,12.79
2024-01-05T10:02:57.034Z,12.81
2024-01-05T10:05:26.309Z,12.73
2024-01-05T10:07:54.743Z,12.82
2024-01-05T10:10:22.633Z,12.78
2024-01-05T10:12:52.071Z,12.77
2024-01-05T10:15:20.292Z,12.70
2024-01-05T10:17:48.266Z,12.76
2024-01-05T10:20:17.702Z,12.73
2024-01-05T10:22:47.887Z,12.74
2024-01-05T10:25:17.824Z,12.71
2024-01-05T10:27:46.157Z,12.69
2024-01-05T10:30:29.913Z,12.67
2024-01-05T10:33:06.015Z,12.64
2024-01-05T10:35:35.380Z,12.63
2024-01-05T10:38:07.620Z,12.62
2024-01-05T10:40:35.557Z,12.61
2024-01-05T10:43:10.948Z,12.58
2024-01-05T10:45:41.111Z,12.56
2024-01-05T10:48:10.393Z,12.56
2024-01-05T10:50:38.910Z,12.55
2024-01-05T10:53:09.801Z,12.54
2024-01-05T10:55:38.758Z,12.53
2024-01-05T10:58:07.456Z,12.52
2024-01-05T11:00:35.543Z,12.51
2024-01-05T11:03:13.022Z,12.53
2024-01-05T11:05:42.838Z,12.52
2024-01-05T11:08:25.841Z,12.53
2024-01-05T11:10:59.860Z,12.54
2024-01-05T11:13:45.324Z,12.44
2024-01-05T11:16:25.438Z,12.57
2024-01-05T11:19:08.502Z,12.60
2024-01-05T11:21:41.633Z,12.63
2024-01-05T11:24:09.630Z,12.64
2024-01-05T11:26:40.266Z,12.66
2024-01-05T11:29:12.038Z,12.70
2024-01-05T11:31:52.513Z,12.75
2024-01-05T11:34:36.102Z,12.78
2024-01-05T11:37:05.604Z,12.82
2024-01-05T11:39:45.005Z,12.87
2024-01-05T11:42:30.765Z,12.87
2024-01-05T11:44:59.103Z,12.89
2024-01-05T11:47:46.420Z,12.88
2024-01-05T11:50:32.081Z,12.86
2024-01-05T11:53:13.521Z,12.84
2024-01-05T11:55:47.738Z,12.83
2024-01-05T11:58:18.124Z,12.82
2024-01-05T12:00:47.694Z,12.81
2024-01-05T12:03:16.577Z,12.80
2024-01-05T12:05:48.971Z,12.77
2024-01-05T12:08:18.525Z,12.74
2024-01-05T12:10:46.448Z,12.71
2024-01-05T12:13:14.319Z,12.69
2024-01-05T12:15:49.773Z,12.67
2024-01-05T12:18:31.468Z,12.65
2024-01-05T12:21:07.002Z,12.62
2024-01-05T12:23:35.573Z,12.61
2024-01-05T12:26:04.519Z,12.60
2024-01-05T12:28:32.935Z,12.58
2024-01-05T12:31:01.111Z,12.59
2024-01-05T12:33:29.604Z,12.57
2024-01-05T12:35:57.760Z,12.53
2024-01-05T12:38:27.320Z,12.52
2024-01-05T12:40:56.716Z,12.52
2024-01-05T12:43:25.113Z,12.51
2024-01-05T12:45:53.024Z,12.51
2024-01-05T12:48:21.034Z,12.51
2024-01-05T12:50:49.008Z,12.52
2024-01-05T12:53:20.677Z,12.52
2024-01-05T12:55:56.063Z,12.56
2024-01-05T12:58:23.951Z,12.58
2024-01-05T13:00:53.616Z,12.59
2024-01-05T13:03:21.654Z,12.60
2024-01-05T13:05:49.610Z,12.62
2024-01-05T13:08:17.588Z,12.64
2024-01-05T13:10:45.616Z,12.65
2024-01-05T13:13:14.847Z,12.66
2024-01-05T13:15:42.845Z,12.68
2024-01-05T13:18:10.970Z,12.69
2024-01-05T13:20:38.947Z,12.71
2024-01-05T13:23:06.963Z,12.71
2024-01-05T13:25:34.870Z,12.74
2024-01-05T13:28:02.733Z,12.74
2024-01-05T13:30:32.088Z,12.77
2024-01-05T13:33:00.219Z,12.78
2024-01-05T13:35:28.339Z,12.78
2024-01-05T13:37:56.235Z,12.79
2024-01-05T13:40:24.172Z,12.80
2024-01-05T13:42:52.039Z,12.82
2024-01-05T13:45:20.221Z,12.83
2024-01-05T13:47:49.538Z,12.85
2024-01-05T13:50:17.756Z,12.84
2024-01-05T13:52:45.711Z,12.83
2024-01-05T13:55:13.620Z,12.83
2024-01-05T13:57:41.837Z,12.82
2024-01-05T14:00:10.737Z,12.81
2024-01-05T14:02:38.735Z,12.81
2024-01-05T14:05:08.629Z,12.78
2024-01-05T14:07:36.562Z,12.75
2024-01-05T14:10:06.323Z,12.72
2024-01-05T14:12:34.473Z,12.70
2024-01-05T14:15:04.875Z,12.67
2024-01-05T14:17:32.968Z,12.65
2024-01-05T14:20:01.085Z,12.62
2024-01-05T14:22:30.440Z,12.57
2024-01-05T14:24:58.516Z,12.58
2024-01-05T14:27:26.548Z,12.56
2024-01-05T14:29:54.483Z,12.54
2024-01-05T14:32:22.658Z,12.53
2024-01-05T14:34:50.886Z,12.52
2024-01-05T14:37:18.791Z,12.50
2024-01-05T14:39:48.012Z,12.50
2024-01-05T14:42:16.192Z,12.51
2024-01-05T14:44:44.135Z,12.49
2024-01-05T14:47:12.260Z,12.49
2024-01-05T14:49:40.376Z,12.51
2024-01-05T14:52:08.321Z,12.51
2024-01-05T14:54:36.256Z,12.53
2024-01-05T14:57:05.908Z,12.56
2024-01-05T14:59:33.844Z,12.59
2024-01-05T15:02:04.047Z,12.61
2024-01-05T15:04:32.805Z,12.63
2024-01-05T15:07:01.034Z,12.64
2024-01-05T15:09:29.436Z,12.64
2024-01-05T15:11:57.437Z,12.67
2024-01-05T15:14:27.979Z,12.71
2024-01-05T15:16:55.864Z,12.70
2024-01-05T15:19:23.850Z,12.70
2024-01-05T15:21:51.834Z,12.72
2024-01-05T15:24:19.868Z,12.75
2024-01-05T15:26:47.880Z,12.76
2024-01-05T15:29:16.096Z,12.74
2024-01-05T15:31:45.396Z,12.77
2024-01-05T15:34:13.546Z,12.77
2024-01-05T15:36:41.769Z,12.78
2024-01-05T15:39:11.196Z,12.79
2024-01-05T15:41:40.087Z,12.80
2024-01-05T15:44:08.048Z,12.76
2024-01-05T15:46:36.003Z,12.80
2024-01-05T15:49:05.472Z,12.79
2024-01-05T15:51:36.544Z,12.79
2024-01-05T15:54:04.837Z,12.79
2024-01-05T15:56:33.690Z,12.78
2024-01-05T15:59:01.625Z,12.78
2024-01-05T16:01:29.771Z,12.76
2024-01-05T16:03:57.813Z,12.75
2024-01-05T16:06:27.997Z,12.73
2024-01-05T16:08:56.009Z,12.70
2024-01-05T16:11:30.000Z,12.68
2024-01-05T16:13:57.950Z,12.67
2024-01-05T16:16:26.236Z,12.64
2024-01-05T16:18:54.758Z,12.62
2024-01-05T16:21:23.989Z,12.59
2024-01-05T16:23:53.505Z,12.59
2024-01-05T16:26:21.499Z,12.54
2024-01-05T16:28:49.578Z,12.54
2024-01-05T16:31:17.999Z,12.53
2024-01-05T16:33:46.338Z,12.51
2024-01-05T16:36:14.318Z,12.51
2024-01-05T16:38:42.279Z,12.49
2024-01-05T16:41:11.493Z,12.50
2024-01-05T16:43:39.453Z,12.50
2024-01-05T16:46:07.384Z,12.50
2024-01-05T16:48:35.460Z,12.50
2024-01-05T16:51:03.642Z,12.53
2024-01-05T16:53:31.564Z,12.54
2024-01-05T16:55:59.472Z,12.55
2024-01-05T16:58:28.765Z,12.58
2024-01-05T17:00:57.002Z,12.60
2024-01-05T17:03:25.094Z,12.61
2024-01-05T17:05:53.193Z,12.65
2024-01-05T17:08:21.125Z,12.66
2024-01-05T17:10:49.102Z,12.67
2024-01-05T17:13:18.001Z,12.68
2024-01-05T17:15:47.335Z,12.68
2024-01-05T17:18:16.775Z,12.69
2024-01-05T17:20:44.930Z,12.73
2024-01-05T17:23:12.951Z,12.73
2024-01-05T17:25:40.829Z,12.75
2024-01-05T17:28:08.701Z,12.75
2024-01-05T17:30:36.844Z,12.75
2024-01-05T17:33:06.586Z,12.78
2024-01-05T17:35:35.324Z,12.77
2024-01-05T17:38:03.276Z,12.78
2024-01-05T17:40:31.206Z,12.80
2024-01-05T17:42:59.266Z,12.79
2024-01-05T17:45:27.296Z,12.81
2024-01-05T17:47:55.273Z,12.80
2024-01-05T17:50:24.578Z,12.80
2024-01-05T17:52:54.768Z,12.79
2024-01-05T17:55:22.637Z,12.79
2024-01-05T17:57:50.703Z,12.78
2024-01-05T18:00:19.440Z,12.80
2024-01-05T18:02:47.384Z,12.78
2024-01-05T18:05:16.137Z,12.76
2024-01-05T18:07:45.490Z,12.72
2024-01-05T18:10:13.618Z,12.70
2024-01-05T18:12:44.167Z,12.68
2024-01-05T18:15:12.932Z,12.64
2024-01-05T18:17:41.001Z,12.63
2024-01-05T18:20:10.395Z,12.61
2024-01-05T18:22:38.377Z,12.60
2024-01-05T18:25:08.316Z,12.58
2024-01-05T18:27:36.270Z,12.55
2024-01-05T18:30:04.803Z,12.54
2024-01-05T18:32:32.857Z,12.52
2024-01-05T18:35:01.659Z,12.51
2024-01-05T18:37:29.694Z,12.49
2024-01-05T18:39:57.628Z,12.49
2024-01-05T18:42:27.137Z,12.49
2024-01-05T18:44:55.036Z,12.49
2024-01-05T18:47:23.082Z,12.47
2024-01-05T18:49:51.019Z,12.50
2024-01-05T18:52:19.289Z,12.51
2024-01-05T18:54:47.218Z,12.53
2024-01-05T18:57:18.837Z,12.54
2024-01-05T18:59:48.174Z,12.55
2024-01-05T19:02:16.065Z,12.56
2024-01-05T19:04:44.072Z,12.58
2024-01-05T19:07:11.972Z,12.59
2024-01-05T19:09:40.043Z,12.60
2024-01-05T19:12:09.151Z,12.62
2024-01-05T19:14:37.673Z,12.63
2024-01-05T19:17:07.528Z,12.64
2024-01-05T19:19:35.591Z,12.65
2024-01-05T19:22:03.993Z,12.64
2024-01-05T19:24:32.001Z,12.66
2024-01-05T19:27:00.125Z,12.68
2024-01-05T19:29:28.031Z,12.69
2024-01-05T19:31:55.995Z,12.67
2024-01-05T19:34:25.350Z,12.70
2024-01-05T19:36:53.532Z,12.70
2024-01-05T19:39:21.761Z,12.71
2024-01-05T19:41:51.162Z,12.75
2024-01-05T19:44:20.871Z,12.74
2024-01-05T19:46:48.817Z,12.75
2024-01-05T19:49:17.068Z,12.74
2024-01-05T19:51:47.948Z,12.73
2024-01-05T19:54:16.921Z,12.74
2024-01-05T19:56:45.347Z,12.72
2024-01-05T19:59:13.435Z,12.73
2024-01-05T20:01:46.301Z,12.71
2024-01-05T20:04:16.244Z,12.69
2024-01-05T20:06:46.108Z,12.66
2024-01-05T20:09:16.370Z,12.63
2024-01-05T20:11:45.013Z,12.62
2024-01-05T20:14:13.551Z,12.59
2024-01-05T20:16:41.515Z,12.57
2024-01-05T20:19:09.715Z,12.56
2024-01-05T20:21:37.995Z,12.54
2024-01-05T20:24:07.049Z,12.50
2024-01-05T20:26:37.066Z,12.48
2024-01-05T20:29:05.164Z,12.49
2024-01-05T20:31:33.958Z,12.47
2024-01-05T20:34:02.397Z,12.46
2024-01-05T20:36:30.603Z,12.45
2024-01-05T20:39:00.763Z,12.44
2024-01-05T20:41:28.870Z,12.44
2024-01-05T20:43:58.740Z,12.41
2024-01-05T20:46:26.757Z,12.43
2024-01-05T20:48:54.792Z,12.43
2024-01-05T20:51:25.406Z,12.44
2024-01-05T20:53:53.734Z,12.44
2024-01-05T20:56:21.680Z,12.45
2024-01-05T20:58:49.609Z,12.46
2024-01-05T21:01:19.512Z,12.48
2024-01-05T21:03:48.416Z,12.49
2024-01-05T21:06:16.522Z,12.51
2024-01-05T21:08:44.948Z,12.52
2024-01-05T21:11:20.805Z,12.54
2024-01-05T21:13:48.978Z,12.54
2024-01-05T21:16:16.885Z,12.57
2024-01-05T21:18:46.354Z,12.58
2024-01-05T21:21:14.368Z,12.61
2024-01-05T21:23:42.285Z,12.61
2024-01-05T21:26:10.206Z,12.63
2024-01-05T21:28:38.100Z,12.65
2024-01-05T21:31:06.533Z,12.66
2024-01-05T21:33:34.896Z,12.68
2024-01-05T21:36:05.406Z,12.70
2024-01-05T21:38:34.534Z,12.72
2024-01-05T21:41:02.697Z,12.73
2024-01-05T21:43:30.726Z,12.75
2024-01-05T21:45:59.470Z,12.75
2024-01-05T21:48:27.635Z,12.74
2024-01-05T21:50:55.621Z,12.72
2024-01-05T21:53:24.837Z,12.73
2024-01-05T21:55:53.000Z,12.69
2024-01-05T21:58:20.974Z,12.69
2024-01-05T22:00:49.202Z,12.66
2024-01-05T22:03:19.770Z,12.64
2024-01-05T22:05:48.844Z,12.62
2024-01-05T22:08:16.844Z,12.60
2024-01-05T22:10:47.882Z,12.57
2024-01-05T22:13:15.956Z,12.55
2024-01-05T22:15:43.954Z,12.53
2024-01-05T22:18:11.968Z,12.50
2024-01-05T22:20:42.866Z,12.49
2024-01-05T22:23:10.749Z,12.47
2024-01-05T22:25:41.315Z,12.45
2024-01-05T22:28:10.646Z,12.44
2024-01-05T22:30:38.615Z,12.41
2024-01-05T22:33:06.816Z,12.40
2024-01-05T22:35:34.809Z,12.36
2024-01-05T22:38:02.670Z,12.39
2024-01-05T22:40:30.611Z,12.37
2024-01-05T22:42:58.643Z,12.38
2024-01-05T22:45:27.956Z,12.38
2024-01-05T22:47:56.065Z,12.38
2024-01-05T22:50:24.048Z,12.39
2024-01-05T22:52:52.319Z,12.40
2024-01-05T22:55:20.239Z,12.43
2024-01-05T22:57:48.162Z,12.44
2024-01-05T23:00:18.494Z,12.46
2024-01-05T23:02:47.765Z,12.49
2024-01-05T23:05:15.677Z,12.53
2024-01-05T23:07:43.846Z,12.53
2024-01-05T23:10:11.919Z,12.56
2024-01-05T23:12:39.880Z,12.58
2024-01-05T23:15:09.413Z,12.58
2024-01-05T23:17:37.898Z,12.61
2024-01-05T23:20:09.943Z,12.63
2024-01-05T23:22:38.089Z,12.64
2024-01-05T23:25:06.535Z,12.67
2024-01-05T23:27:35.240Z,12.67
2024-01-05T23:30:03.904Z,12.70
2024-01-05T23:32:31.939Z,12.71
2024-01-05T23:35:00.052Z,12.74
2024-01-05T23:37:30.333Z,12.74
2024-01-05T23:39:58.299Z,12.76
2024-01-05T23:42:26.208Z,12.74
2024-01-05T23:44:54.150Z,12.72
2024-01-05T23:47:22.150Z,12.74
2024-01-05T23:49:50.241Z,12.74
2024-01-05T23:52:18.273Z,12.40
2024-01-05T23:54:47.668Z,12.69
2024-01-05T23:57:15.661Z,12.69
2024-01-05T23:59:43.636Z,12.67
